createdAt,value
2022-08-17T00:00:00.946Z,11.4
2022-08-17T00:05:01.138Z,11.4
2022-08-17T00:10:00.832Z,11.4
2022-08-17T00:15:00.825Z,11.3
2022-08-17T00:20:00.746Z,11.2
2022-08-17T00:25:01.061Z,11.2
2022-08-17T00:30:00.798Z,11.2
2022-08-17T00:35:00.745Z,11.2
2022-08-17T00:40:00.847Z,11.2
2022-08-17T00:45:01.013Z,11.2
2022-08-17T00:50:01.040Z,11.3
2022-08-17T00:55:00.813Z,11.3
2022-08-17T01:00:02.844Z,11.3
2022-08-17T01:05:00.738Z,11.3
2022-08-17T01:10:00.739Z,11.2
2022-08-17T01:15:01.066Z,11.2
2022-08-17T01:20:00.812Z,11.2
2022-08-17T01:25:00.751Z,11.2
2022-08-17T01:30:00.747Z,11.2
2022-08-17T01:35:00.750Z,11.2
2022-08-17T01:40:00.852Z,11.4
2022-08-17T01:45:00.748Z,11.4
2022-08-17T01:50:00.690Z,11.2
2022-08-17T01:55:00.765Z,11.3
2022-08-17T02:00:00.732Z,11.3
2022-08-17T02:05:01.079Z,11.4
2022-08-17T02:10:00.920Z,11.3
2022-08-17T02:15:00.748Z,11.2
2022-08-17T02:20:00.749Z,11.2
2022-08-17T02:25:02.251Z,11.2
2022-08-17T02:30:00.766Z,11.1
2022-08-17T02:35:00.737Z,11.1
2022-08-17T02:40:00.835Z,11.2
2022-08-17T02:45:00.891Z,11.2
2022-08-17T02:50:00.747Z,11.3
2022-08-17T02:55:00.874Z,11.3
2022-08-17T03:00:00.749Z,11.2
2022-08-17T03:05:00.750Z,11.3
2022-08-17T03:10:00.747Z,11.4
2022-08-17T03:15:00.994Z,11.3
2022-08-17T03:20:00.710Z,11.3
2022-08-17T03:25:00.937Z,11.2
2022-08-17T03:30:00.746Z,11.2
2022-08-17T03:35:00.748Z,11.2
2022-08-17T03:40:00.806Z,11.1
2022-08-17T03:45:00.787Z,11.2
2022-08-17T03:50:00.730Z,11.2
2022-08-17T03:55:00.756Z,11.2
2022-08-17T04:00:00.910Z,11.1
2022-08-17T04:05:01.112Z,11.1
2022-08-17T04:10:00.793Z,11.2
2022-08-17T04:15:00.747Z,11.1
2022-08-17T04:20:00.746Z,11.1
2022-08-17T04:25:00.752Z,11.1
2022-08-17T04:30:00.750Z,11
2022-08-17T04:35:00.678Z,11
2022-08-17T04:40:03.748Z,11.2
2022-08-17T04:45:00.852Z,11.2
2022-08-17T04:50:00.745Z,11.3
2022-08-17T04:55:00.688Z,11.4
2022-08-17T05:00:00.765Z,11.5
2022-08-17T05:05:00.755Z,11.4
2022-08-17T05:10:00.747Z,11.7
2022-08-17T05:15:01.073Z,11.7
2022-08-17T05:20:00.801Z,11.9
2022-08-17T05:25:01.785Z,11.9
2022-08-17T05:30:00.750Z,12.1
2022-08-17T05:35:00.914Z,12.2
2022-08-17T05:40:01.259Z,12.2
2022-08-17T05:45:00.796Z,12.4
2022-08-17T05:50:00.745Z,12.4
2022-08-17T05:55:00.748Z,12.3
2022-08-17T06:00:01.020Z,12.4
2022-08-17T06:05:00.813Z,12.4
2022-08-17T06:10:00.925Z,12.5
2022-08-17T06:15:00.693Z,12.6
2022-08-17T06:20:00.761Z,12.6
2022-08-17T06:25:00.759Z,12.9
2022-08-17T06:35:00.751Z,13
2022-08-17T06:40:00.785Z,12.9
2022-08-17T06:45:01.220Z,12.6
2022-08-17T06:50:00.793Z,12.7
2022-08-17T06:55:00.751Z,12.5
2022-08-17T07:00:00.878Z,12.4
2022-08-17T07:05:00.752Z,13.2
2022-08-17T07:10:00.744Z,12.8
2022-08-17T07:15:01.054Z,12.7
2022-08-17T07:20:00.900Z,12.5
2022-08-17T07:25:00.747Z,12.5
2022-08-17T07:30:00.908Z,12.5
2022-08-17T07:35:00.755Z,12.6
2022-08-17T07:40:15.647Z,12.3
2022-08-17T07:45:01.207Z,12.5
2022-08-17T07:50:00.795Z,12.5
2022-08-17T07:55:00.748Z,12
2022-08-17T08:00:01.149Z,12.3
2022-08-17T08:05:01.803Z,12.3
2022-08-17T08:10:00.750Z,12.3
2022-08-17T08:15:00.743Z,12.2
2022-08-17T08:25:01.042Z,12.2
2022-08-17T08:30:00.807Z,12.2
2022-08-17T08:35:02.350Z,12.5
2022-08-17T08:40:00.775Z,12.5
2022-08-17T08:45:04.284Z,12.3
2022-08-17T08:50:04.254Z,12.5
2022-08-17T08:55:00.757Z,12.3
2022-08-17T09:00:00.848Z,12.5
2022-08-17T09:05:14.899Z,12.3
2022-08-17T09:10:00.746Z,12.7
2022-08-17T09:15:01.149Z,12.4
2022-08-17T09:20:00.799Z,12.5
2022-08-17T09:25:00.748Z,12.5
2022-08-17T09:30:00.748Z,12.5
2022-08-17T09:35:01.047Z,12.6
2022-08-17T09:40:00.832Z,12.4
2022-08-17T09:45:00.748Z,12.2
2022-08-17T09:50:00.889Z,12
2022-08-17T09:55:00.740Z,12.2
2022-08-17T10:00:01.087Z,11.9
2022-08-17T10:05:00.811Z,12.5
2022-08-17T10:10:00.745Z,12
2022-08-17T10:15:02.334Z,12.2
2022-08-17T10:20:00.781Z,12.1
2022-08-17T10:25:02.266Z,12.1
2022-08-17T10:30:00.752Z,11.7
2022-08-17T10:35:00.736Z,11.5
2022-08-17T10:40:00.807Z,11.7
2022-08-17T10:45:00.747Z,11.9
2022-08-17T10:50:00.746Z,12.1
2022-08-17T10:55:00.757Z,11.6
2022-08-17T11:00:01.016Z,11.7
2022-08-17T11:05:00.791Z,11.6
2022-08-17T11:10:00.747Z,12
2022-08-17T11:15:00.742Z,12.3
2022-08-17T11:20:00.756Z,11.8
2022-08-17T11:25:01.052Z,12.3
2022-08-17T11:30:02.377Z,12
2022-08-17T11:35:00.867Z,11.8
2022-08-17T11:40:01.099Z,12.2
2022-08-17T11:45:00.802Z,12.2
2022-08-17T11:50:00.743Z,12.1
2022-08-17T11:55:17.944Z,11.8
2022-08-17T12:00:00.727Z,11.9
2022-08-17T12:05:00.748Z,12
2022-08-17T12:10:00.745Z,11.5
2022-08-17T12:15:11.289Z,12.2
2022-08-17T12:20:00.793Z,12
2022-08-17T12:25:00.747Z,12.2
2022-08-17T12:35:00.742Z,12.1
2022-08-17T12:40:01.067Z,11.8
2022-08-17T12:45:00.809Z,11.9
2022-08-17T12:50:00.748Z,12
2022-08-17T12:55:00.751Z,11.6
2022-08-17T13:00:00.775Z,12
2022-08-17T13:05:01.011Z,11.5
2022-08-17T13:10:00.813Z,11.6
2022-08-17T13:15:00.746Z,11.7
2022-08-17T13:20:00.749Z,11.6
2022-08-17T13:25:00.749Z,11.5
2022-08-17T13:30:00.746Z,11.6
2022-08-17T13:35:13.310Z,11.5
2022-08-17T13:40:00.892Z,11.7
2022-08-17T13:45:00.810Z,11.7
2022-08-17T13:50:00.795Z,12.2
2022-08-17T13:55:00.764Z,11.7
2022-08-17T14:00:01.288Z,11.9
2022-08-17T14:05:00.814Z,11.9
2022-08-17T14:10:01.006Z,11.8
2022-08-17T14:15:00.748Z,11.8
2022-08-17T14:20:00.804Z,11.9
2022-08-17T14:25:00.744Z,11.9
2022-08-17T14:30:00.813Z,11.9
2022-08-17T14:35:00.753Z,11.9
2022-08-17T14:40:00.884Z,11.9
2022-08-17T14:45:01.010Z,11.8
2022-08-17T14:50:00.814Z,12.1
2022-08-17T14:55:00.748Z,11.9
2022-08-17T15:00:00.762Z,11.6
2022-08-17T15:05:00.822Z,11.8
2022-08-17T15:10:01.322Z,12.1
2022-08-17T15:15:00.878Z,11.7
2022-08-17T15:20:01.071Z,11.6
2022-08-17T15:25:00.798Z,11.5
2022-08-17T15:30:00.746Z,11.5
2022-08-17T15:35:00.748Z,11.8
2022-08-17T15:40:00.841Z,11.7
2022-08-17T15:45:01.023Z,11.6
2022-08-17T15:50:00.806Z,11.6
2022-08-17T15:55:00.889Z,11.8
2022-08-17T16:00:00.808Z,11.8
2022-08-17T16:05:00.886Z,12
2022-08-17T16:10:00.752Z,12
2022-08-17T16:15:00.748Z,12
2022-08-17T16:20:01.066Z,12
2022-08-17T16:25:00.842Z,12.2
2022-08-17T16:30:00.783Z,12.4
2022-08-17T16:35:00.769Z,12.1
2022-08-17T16:40:01.077Z,12.2
2022-08-17T16:45:00.788Z,12.7
2022-08-17T16:50:00.923Z,12.4
2022-08-17T16:55:01.169Z,12.4
2022-08-17T17:00:00.935Z,12.2
2022-08-17T17:05:00.754Z,12.1
2022-08-17T17:10:00.753Z,12
2022-08-17T17:15:01.014Z,12.2
2022-08-17T17:20:00.895Z,12.1
2022-08-17T17:25:00.750Z,12
2022-08-17T17:30:01.037Z,11.9
2022-08-17T17:35:00.800Z,12.1
2022-08-17T17:40:00.823Z,11.9
2022-08-17T17:45:00.760Z,11.9
2022-08-17T17:50:00.758Z,11.8
2022-08-17T17:55:00.872Z,11.9
2022-08-17T18:00:00.744Z,11.9
2022-08-17T18:05:01.074Z,11.8
2022-08-17T18:10:01.295Z,11.7
2022-08-17T18:15:00.751Z,11.9
2022-08-17T18:20:00.745Z,11.5
2022-08-17T18:25:00.746Z,11.3
2022-08-17T18:30:02.499Z,11.2
2022-08-17T18:35:00.875Z,11.1
2022-08-17T18:40:00.790Z,11
2022-08-17T18:45:01.122Z,10.8
2022-08-17T18:50:00.795Z,11
2022-08-17T18:55:00.748Z,10.8
2022-08-17T19:00:01.051Z,10.8
2022-08-17T19:05:00.816Z,10.7
2022-08-17T19:10:00.730Z,10.8
2022-08-17T19:15:00.891Z,10.9
2022-08-17T19:20:01.049Z,10.8
2022-08-17T19:25:02.608Z,10.7
2022-08-17T19:30:05.491Z,10.9
2022-08-17T19:35:01.235Z,11
2022-08-17T19:40:00.838Z,11.3
2022-08-17T19:45:00.737Z,10.7
2022-08-17T19:50:00.761Z,10.7
2022-08-17T19:55:01.010Z,10.7
2022-08-17T20:00:00.785Z,11
2022-08-17T20:05:00.755Z,11
2022-08-17T20:10:00.761Z,11
2022-08-17T20:15:00.747Z,11.2
2022-08-17T20:20:00.772Z,11.7
2022-08-17T20:25:01.076Z,11.5
2022-08-17T20:30:01.118Z,11.7
2022-08-17T20:35:01.140Z,11.8
2022-08-17T20:40:01.035Z,11.7
2022-08-17T20:45:00.749Z,11.8
2022-08-17T20:50:00.748Z,11.9
2022-08-17T20:55:00.744Z,12
2022-08-17T21:00:00.757Z,11.9
2022-08-17T21:05:01.041Z,12.1
2022-08-17T21:10:00.803Z,12.1
2022-08-17T21:15:00.748Z,12
2022-08-17T21:20:10.697Z,12
2022-08-17T21:25:00.750Z,12.1
2022-08-17T21:30:00.905Z,12.1
2022-08-17T21:35:01.037Z,12.1
2022-08-17T21:40:00.835Z,12.1
2022-08-17T21:45:00.748Z,12.1
2022-08-17T21:50:00.751Z,12.1
2022-08-17T21:55:01.031Z,12.1
2022-08-17T22:00:00.799Z,12.1
2022-08-17T22:05:00.741Z,12.3
2022-08-17T22:10:00.743Z,12.3
2022-08-17T22:15:01.178Z,12.2
2022-08-17T22:20:00.807Z,12.2
2022-08-17T22:25:00.798Z,12.1
2022-08-17T22:30:00.797Z,12.1
2022-08-17T22:35:00.758Z,12.2
2022-08-17T22:40:00.867Z,12.2
2022-08-17T22:45:00.732Z,12.1
2022-08-17T22:50:01.052Z,12
2022-08-17T22:55:00.932Z,12
2022-08-17T23:00:00.726Z,11.9
2022-08-17T23:05:00.752Z,11.8
2022-08-17T23:10:00.753Z,11.8
2022-08-17T23:15:00.752Z,11.9
2022-08-17T23:20:00.754Z,11.9
2022-08-17T23:25:01.073Z,11.8
2022-08-17T23:30:00.813Z,11.8
2022-08-17T23:35:00.753Z,11.9
2022-08-17T23:40:00.955Z,12
2022-08-17T23:45:01.091Z,11.9
2022-08-17T23:50:01.648Z,11.8
2022-08-17T23:55:00.742Z,11.8
